Sincerity Ace — 3FFD7 — position and weather

sailwx.info

Track history (hours):
 
Tides and Currents Weather Stations Pressure Air Temp Water Temp Dewpoint Dewpoint Depression Visibility Wind Speed Wind Dir Waves Ship Positions

Sincerity Ace

Last reported at 2014-Nov-05 15:31 UTC. Time now 2014-Nov-26 15:05 UTC.
Position N 34°01' E 132°28'.
Warning: this ship's position is 20 days out of date.

Length 200 m; draft 8.9 m.

Type: Cargo ship. MMSI: 351690000.

Date/timePositionNaut miles runAvg speedWind from/ knotsBaromVisibWave heightAir tempDewpointWater temp
2014-Nov-05 15:31N 34°01' E 132°28'1313.8
2014-Nov-05 14:34N 34°13' E 132°21'9 8.6
2014-Nov-05 13:32N 34°20' E 132°28'0 0.1
2014-Nov-05 12:32N 34°20' E 132°28'0 0.0
2014-Nov-05 11:32N 34°20' E 132°28'0 0.0
2014-Nov-05 10:32N 34°20' E 132°28'0 0.0
2014-Nov-05 09:32N 34°20' E 132°28'0 0.0
2014-Nov-05 08:33N 34°20' E 132°28'2 1.7
2014-Nov-05 07:31N 34°21' E 132°29'0 0.0
2014-Nov-05 06:31N 34°21' E 132°29'0 0.0
2014-Nov-05 05:25N 34°21' E 132°29'0 0.0
2014-Nov-05 04:31N 34°21' E 132°29'0 0.0
2014-Nov-05 03:31N 34°21' E 132°29'0 0.0
2014-Nov-05 02:31N 34°21' E 132°29'0 0.0
2014-Nov-05 01:31N 34°21' E 132°29'0 0.0
2014-Nov-05 00:31N 34°21' E 132°29'0 0.0
2014-Nov-04 23:31N 34°21' E 132°29'2 1.8
2014-Nov-04 22:31N 34°20' E 132°28'0 0.0
2014-Nov-04 21:31N 34°20' E 132°28'0 0.0
2014-Nov-04 20:31N 34°20' E 132°28'0 0.1
2014-Nov-04 19:31N 34°20' E 132°28'0 0.1
2014-Nov-04 18:31N 34°20' E 132°28'0 0.1
2014-Nov-04 17:31N 34°20' E 132°28'0 0.1
2014-Nov-04 16:31N 34°20' E 132°28'0 0.1
2014-Nov-04 15:31N 34°20' E 132°28'0 0.0
2014-Nov-04 14:31N 34°20' E 132°28'0 0.0
2014-Nov-04 13:31N 34°20' E 132°28'0 0.0
2014-Nov-04 12:31N 34°20' E 132°28'0 0.0
2014-Nov-04 11:31N 34°20' E 132°28'0 0.0
2014-Nov-04 10:31N 34°20' E 132°28'0 0.0
2014-Nov-04 09:31N 34°20' E 132°28'0 0.1
2014-Nov-04 08:31N 34°20' E 132°28'0 0.0
2014-Nov-04 07:28N 34°20' E 132°28'0 0.0
2014-Nov-04 06:31N 34°20' E 132°28'0 0.0
2014-Nov-04 05:28N 34°20' E 132°28'0 0.1
2014-Nov-04 04:33N 34°20' E 132°28'7 7.5
2014-Nov-04 03:33N 34°15' E 132°21'110 6.4
2014-Nov-03 10:17N 32°26' E 131°59'2 2.1
2014-Nov-03 09:33N 32°27' E 132°00'2 1.8
2014-Nov-03 08:33N 32°28' E 132°02'2 1.7
2014-Nov-03 07:33N 32°29' E 132°04'2 1.8
2014-Nov-03 06:32N 32°31' E 132°05'  
Track history (hours):
 
Tides and Currents Weather Stations Pressure Air Temp Water Temp Dewpoint Dewpoint Depression Visibility Wind Speed Wind Dir Waves Ship Positions

Sincerity Ace

Last reported at 2014-Nov-05 15:31 UTC. Time now 2014-Nov-26 15:05 UTC.
Position N 34°01' E 132°28'.
Warning: this ship's position is 20 days out of date.

Length 200 m; draft 8.9 m.

Type: Cargo ship. MMSI: 351690000.

Date/timePositionNaut miles runAvg speedWind from/ knotsBaromVisibWave heightAir tempDewpointWater temp
2014-Nov-05 15:31N 34°01' E 132°28'1313.8
2014-Nov-05 14:34N 34°13' E 132°21'9 8.6
2014-Nov-05 13:32N 34°20' E 132°28'0 0.1
2014-Nov-05 12:32N 34°20' E 132°28'0 0.0
2014-Nov-05 11:32N 34°20' E 132°28'0 0.0
2014-Nov-05 10:32N 34°20' E 132°28'0 0.0
2014-Nov-05 09:32N 34°20' E 132°28'0 0.0
2014-Nov-05 08:33N 34°20' E 132°28'2 1.7
2014-Nov-05 07:31N 34°21' E 132°29'0 0.0
2014-Nov-05 06:31N 34°21' E 132°29'0 0.0
2014-Nov-05 05:25N 34°21' E 132°29'0 0.0
2014-Nov-05 04:31N 34°21' E 132°29'0 0.0
2014-Nov-05 03:31N 34°21' E 132°29'0 0.0
2014-Nov-05 02:31N 34°21' E 132°29'0 0.0
2014-Nov-05 01:31N 34°21' E 132°29'0 0.0
2014-Nov-05 00:31N 34°21' E 132°29'0 0.0
2014-Nov-04 23:31N 34°21' E 132°29'2 1.8
2014-Nov-04 22:31N 34°20' E 132°28'0 0.0
2014-Nov-04 21:31N 34°20' E 132°28'0 0.0
2014-Nov-04 20:31N 34°20' E 132°28'0 0.1
2014-Nov-04 19:31N 34°20' E 132°28'0 0.1
2014-Nov-04 18:31N 34°20' E 132°28'0 0.1
2014-Nov-04 17:31N 34°20' E 132°28'0 0.1
2014-Nov-04 16:31N 34°20' E 132°28'0 0.1
2014-Nov-04 15:31N 34°20' E 132°28'0 0.0
2014-Nov-04 14:31N 34°20' E 132°28'0 0.0
2014-Nov-04 13:31N 34°20' E 132°28'0 0.0
2014-Nov-04 12:31N 34°20' E 132°28'0 0.0
2014-Nov-04 11:31N 34°20' E 132°28'0 0.0
2014-Nov-04 10:31N 34°20' E 132°28'0 0.0
2014-Nov-04 09:31N 34°20' E 132°28'0 0.1
2014-Nov-04 08:31N 34°20' E 132°28'0 0.0
2014-Nov-04 07:28N 34°20' E 132°28'0 0.0
2014-Nov-04 06:31N 34°20' E 132°28'0 0.0
2014-Nov-04 05:28N 34°20' E 132°28'0 0.1
2014-Nov-04 04:33N 34°20' E 132°28'7 7.5
2014-Nov-04 03:33N 34°15' E 132°21'110 6.4
2014-Nov-03 10:17N 32°26' E 131°59'2 2.1
2014-Nov-03 09:33N 32°27' E 132°00'2 1.8
2014-Nov-03 08:33N 32°28' E 132°02'2 1.7
2014-Nov-03 07:33N 32°29' E 132°04'2 1.8
2014-Nov-03 06:32N 32°31' E 132°05'  

Dump ship's entire track history